Time,TemperatureF,DewpointF,PressureIn,WindDirection,WindDirectionDegrees,WindSpeedMPH,WindSpeedGustMPH,Humidity,HourlyPrecipIn,Conditions,Clouds,dailyrainin,SoftwareType,DateUTC
2013-01-11 00:00:00,75.7,66.1,30.19,SE,135,6.9,6.9,72,0.00,CLR,,0.00,WeatherDisplay:10.37,2013-01-11 05:00:00,
2013-01-11 00:02:00,75.7,66.1,30.19,SE,135,6.9,6.9,72,0.00,CLR,,0.00,WeatherDisplay:10.37,2013-01-11 05:02:00,
2013-01-11 00:03:00,75.7,66.1,30.19,ESE,112,6.9,6.9,72,0.00,CLR,,0.00,WeatherDisplay:10.37,2013-01-11 05:03:00,
2013-01-11 00:08:00,75.7,66.5,30.19,ESE,112,5.8,5.8,73,0.00,CLR,,0.00,WeatherDisplay:10.37,2013-01-11 05:08:00,
2013-01-11 00:13:00,75.6,65.9,30.19,SE,135,8.1,8.1,72,0.00,CLR,,0.00,WeatherDisplay:10.37,2013-01-11 05:13:00,
2013-01-11 00:18:00,75.4,65.7,30.19,SE,135,8.1,8.1,72,0.00,CLR,,0.00,WeatherDisplay:10.37,2013-01-11 05:18:00,
2013-01-11 00:23:00,75.2,65.6,30.19,ESE,112,5.8,5.8,72,0.00,CLR,,0.00,WeatherDisplay:10.37,2013-01-11 05:23:00,
2013-01-11 00:28:00,75.2,65.6,30.19,SE,135,6.9,6.9,72,0.00,CLR,,0.00,WeatherDisplay:10.37,2013-01-11 05:28:00,
2013-01-11 00:33:00,75.2,65.9,30.19,East,90,5.8,5.8,73,0.00,CLR,,0.00,WeatherDisplay:10.37,2013-01-11 05:33:00,
2013-01-11 00:38:00,75.4,66.1,30.19,SE,135,6.9,6.9,73,0.00,CLR,,0.00,WeatherDisplay:10.37,2013-01-11 05:38:00,
2013-01-11 00:43:00,75.0,65.8,30.19,SE,135,5.8,5.8,73,0.00,CLR,,0.00,WeatherDisplay:10.37,2013-01-11 05:43:00,
2013-01-11 00:48:00,75.2,66.3,30.19,ENE,68,3.5,4.6,74,0.00,CLR,,0.00,WeatherDisplay:10.37,2013-01-11 05:48:00,
2013-01-11 00:53:00,75.0,66.2,30.19,SE,135,5.8,5.8,74,0.00,CLR,,0.00,WeatherDisplay:10.37,2013-01-11 05:53:00,
2013-01-11 00:58:00,75.0,66.2,30.19,ENE,68,5.8,5.8,74,0.00,CLR,,0.00,WeatherDisplay:10.37,2013-01-11 05:58:00,
2013-01-11 01:03:00,75.0,66.2,30.19,ESE,112,4.6,4.6,74,0.00,CLR,,0.00,WeatherDisplay:10.37,2013-01-11 06:03:00,
2013-01-11 01:08:00,75.0,66.2,30.19,ESE,112,6.0,6.0,74,0.00,CLR,,0.00,WeatherDisplay:10.37,2013-01-11 06:08:00,
2013-01-11 01:13:00,75.0,65.8,30.19,SE,135,5.8,5.8,73,0.00,CLR,,0.00,WeatherDisplay:10.37,2013-01-11 06:13:00,
2013-01-11 01:18:00,75.0,65.8,30.19,SE,135,5.8,5.8,73,0.00,CLR,,0.00,WeatherDisplay:10.37,2013-01-11 06:18:00,
2013-01-11 01:23:00,74.8,65.6,30.19,SE,135,5.8,5.8,73,0.00,CLR,,0.00,WeatherDisplay:10.37,2013-01-11 06:23:00,
2013-01-11 01:28:00,75.0,66.2,30.18,SE,135,4.6,4.6,74,0.00,CLR,,0.00,WeatherDisplay:10.37,2013-01-11 06:28:00,
2013-01-11 01:33:00,75.0,65.8,30.18,ENE,68,6.9,6.9,73,0.00,CLR,,0.00,WeatherDisplay:10.37,2013-01-11 06:33:00,
2013-01-11 01:38:00,75.2,66.3,30.18,SE,135,5.8,5.8,74,0.00,CLR,,0.00,WeatherDisplay:10.37,2013-01-11 06:38:00,
2013-01-11 01:43:00,75.2,66.3,30.18,SE,135,6.9,6.9,74,0.00,CLR,,0.00,WeatherDisplay:10.37,2013-01-11 06:43:00,
2013-01-11 01:48:00,75.0,66.2,30.17,SE,135,10.4,10.4,74,0.00,CLR,,0.00,WeatherDisplay:10.37,2013-01-11 06:48:00,
2013-01-11 01:53:00,75.0,66.2,30.17,SSE,158,3.5,5.3,74,0.00,CLR,,0.00,WeatherDisplay:10.37,2013-01-11 06:53:00,
2013-01-11 01:58:00,75.0,66.2,30.17,SSE,158,4.6,4.8,74,0.00,CLR,,0.00,WeatherDisplay:10.37,2013-01-11 06:58:00,
2013-01-11 02:03:00,74.8,66.0,30.17,SE,135,6.9,6.9,74,0.00,CLR,,0.00,WeatherDisplay:10.37,2013-01-11 07:03:00,
2013-01-11 02:08:00,75.0,66.2,30.18,ESE,112,9.2,9.2,74,0.00,CLR,,0.00,WeatherDisplay:10.37,2013-01-11 07:08:00,
2013-01-11 02:13:00,75.0,66.2,30.18,ESE,112,6.9,6.9,74,0.00,CLR,,0.00,WeatherDisplay:10.37,2013-01-11 07:13:00,
2013-01-11 02:18:00,74.8,66.0,30.18,SE,135,6.9,6.9,74,0.00,CLR,,0.00,WeatherDisplay:10.37,2013-01-11 07:18:00,
2013-01-11 02:23:00,74.7,65.8,30.18,SE,135,5.8,5.8,74,0.00,CLR,,0.00,WeatherDisplay:10.37,2013-01-11 07:23:00,
2013-01-11 02:28:00,74.7,65.8,30.17,SE,135,9.2,9.2,74,0.00,CLR,,0.00,WeatherDisplay:10.37,2013-01-11 07:28:00,
2013-01-11 02:33:00,74.7,65.8,30.17,SE,135,4.6,4.6,74,0.00,CLR,,0.00,WeatherDisplay:10.37,2013-01-11 07:33:00,
2013-01-11 02:38:00,74.5,66.0,30.17,SE,135,5.8,5.8,75,0.00,CLR,,0.00,WeatherDisplay:10.37,2013-01-11 07:38:00,
2013-01-11 02:43:00,74.5,66.0,30.17,SE,135,5.8,5.8,75,0.00,CLR,,0.00,WeatherDisplay:10.37,2013-01-11 07:43:00,
2013-01-11 02:48:00,74.5,66.4,30.15,SE,135,6.9,6.9,76,0.00,CLR,,0.00,WeatherDisplay:10.37,2013-01-11 07:48:00,
2013-01-11 02:53:00,74.7,66.6,30.15,East,90,5.3,5.3,76,0.00,CLR,,0.00,WeatherDisplay:10.37,2013-01-11 07:53:00,
2013-01-11 02:58:00,74.8,66.8,30.15,SE,135,8.1,8.1,76,0.00,CLR,,0.00,WeatherDisplay:10.37,2013-01-11 07:58:00,
2013-01-11 03:03:00,75.0,66.9,30.15,SE,135,4.6,4.7,76,0.00,CLR,,0.00,WeatherDisplay:10.37,2013-01-11 08:03:00,
2013-01-11 03:08:00,74.8,66.8,30.15,SE,135,11.5,11.5,76,0.00,CLR,,0.00,WeatherDisplay:10.37,2013-01-11 08:08:00,
2013-01-11 03:13:00,74.7,66.6,30.15,SE,135,6.9,6.9,76,0.00,CLR,,0.00,WeatherDisplay:10.37,2013-01-11 08:13:00,
2013-01-11 03:18:00,74.7,66.2,30.15,SSE,158,6.9,6.9,75,0.00,CLR,,0.00,WeatherDisplay:10.37,2013-01-11 08:18:00,
2013-01-11 03:23:00,74.5,66.0,30.15,SE,135,5.8,5.8,75,0.00,CLR,,0.00,WeatherDisplay:10.37,2013-01-11 08:23:00,
2013-01-11 03:28:00,74.5,66.0,30.14,SE,135,6.9,6.9,75,0.00,CLR,,0.00,WeatherDisplay:10.37,2013-01-11 08:28:00,
2013-01-11 03:33:00,74.5,66.0,30.14,ESE,112,6.9,6.9,75,0.00,CLR,,0.00,WeatherDisplay:10.37,2013-01-11 08:33:00,
2013-01-11 03:38:00,74.5,66.4,30.14,ESE,112,4.6,4.7,76,0.00,CLR,,0.00,WeatherDisplay:10.37,2013-01-11 08:38:00,
2013-01-11 03:43:00,74.7,66.6,30.14,SE,135,9.3,9.3,76,0.00,CLR,,0.00,WeatherDisplay:10.37,2013-01-11 08:43:00,
2013-01-11 03:48:00,75.0,66.9,30.13,SE,135,5.8,5.8,76,0.00,CLR,,0.00,WeatherDisplay:10.37,2013-01-11 08:48:00,
2013-01-11 03:53:00,75.0,66.9,30.13,South,180,5.8,5.8,76,0.00,CLR,,0.00,WeatherDisplay:10.37,2013-01-11 08:53:00,
2013-01-11 03:58:00,74.8,66.8,30.13,SE,135,6.9,6.9,76,0.00,CLR,,0.00,WeatherDisplay:10.37,2013-01-11 08:58:00,
2013-01-11 04:03:00,74.7,67.0,30.13,SE,135,5.8,5.8,77,0.00,CLR,,0.00,WeatherDisplay:10.37,2013-01-11 09:03:00,
2013-01-11 04:08:00,74.7,67.0,30.12,SE,135,6.9,6.9,77,0.00,CLR,,0.00,WeatherDisplay:10.37,2013-01-11 09:08:00,
2013-01-11 04:13:00,74.7,67.0,30.12,SE,135,11.5,11.5,77,0.00,CLR,,0.00,WeatherDisplay:10.37,2013-01-11 09:13:00,
2013-01-11 04:18:00,74.7,67.0,30.12,SSE,158,9.2,9.2,77,0.00,CLR,,0.00,WeatherDisplay:10.37,2013-01-11 09:18:00,
2013-01-11 04:23:00,74.7,66.6,30.12,ENE,68,6.9,6.9,76,0.00,CLR,,0.00,WeatherDisplay:10.37,2013-01-11 09:23:00,
2013-01-11 04:28:00,74.7,66.6,30.12,South,180,9.2,9.2,76,0.00,CLR,,0.00,WeatherDisplay:10.37,2013-01-11 09:28:00,
2013-01-11 04:34:00,74.7,67.0,30.12,SE,135,6.1,6.1,77,0.00,CLR,,0.00,WeatherDisplay:10.37,2013-01-11 09:34:00,
2013-01-11 04:39:00,74.7,67.0,30.12,SSE,158,10.4,10.4,77,0.00,CLR,,0.00,WeatherDisplay:10.37,2013-01-11 09:39:00,
2013-01-11 04:44:00,74.7,67.0,30.12,SE,135,6.9,6.9,77,0.00,CLR,,0.00,WeatherDisplay:10.37,2013-01-11 09:44:00,
2013-01-11 04:49:00,75.0,67.3,30.11,SE,135,6.9,6.9,77,0.00,CLR,,0.00,WeatherDisplay:10.37,2013-01-11 09:49:00,
2013-01-11 04:54:00,75.0,67.3,30.11,SE,135,6.9,6.9,77,0.00,CLR,,0.00,WeatherDisplay:10.37,2013-01-11 09:54:00,
2013-01-11 04:59:00,74.7,66.6,30.11,SE,135,11.5,11.5,76,0.00,CLR,,0.00,WeatherDisplay:10.37,2013-01-11 09:59:00,
2013-01-11 05:04:00,74.7,66.6,30.11,SE,135,6.9,6.9,76,0.00,CLR,,0.00,WeatherDisplay:10.37,2013-01-11 10:04:00,
2013-01-11 05:09:00,74.7,66.6,30.11,SSE,158,6.9,6.9,76,0.00,CLR,,0.00,WeatherDisplay:10.37,2013-01-11 10:09:00,
2013-01-11 05:14:00,74.7,66.6,30.11,SE,135,4.6,5.6,76,0.00,CLR,,0.00,WeatherDisplay:10.37,2013-01-11 10:14:00,
2013-01-11 05:19:00,74.7,66.6,30.11,SE,135,6.9,6.9,76,0.00,CLR,,0.00,WeatherDisplay:10.37,2013-01-11 10:19:00,
2013-01-11 05:24:00,74.5,66.0,30.11,ESE,112,5.8,5.8,75,0.00,CLR,,0.00,WeatherDisplay:10.37,2013-01-11 10:24:00,
2013-01-11 05:29:00,74.5,66.0,30.11,South,180,6.9,6.9,75,0.00,CLR,,0.00,WeatherDisplay:10.37,2013-01-11 10:29:00,
2013-01-11 05:34:00,74.5,66.4,30.11,SE,135,9.2,9.2,76,0.00,CLR,,0.00,WeatherDisplay:10.37,2013-01-11 10:34:00,
2013-01-11 05:39:00,74.7,66.6,30.11,SE,135,9.2,9.2,76,0.00,CLR,,0.00,WeatherDisplay:10.37,2013-01-11 10:39:00,
2013-01-11 05:44:00,74.7,66.6,30.11,SE,135,6.9,6.9,76,0.00,CLR,,0.00,WeatherDisplay:10.37,2013-01-11 10:44:00,
2013-01-11 05:49:00,74.7,66.2,30.11,SE,135,7.1,7.1,75,0.00,CLR,,0.00,WeatherDisplay:10.37,2013-01-11 10:49:00,
2013-01-11 05:54:00,74.5,66.0,30.11,SE,135,9.2,9.2,75,0.00,CLR,,0.00,WeatherDisplay:10.37,2013-01-11 10:54:00,
2013-01-11 05:59:00,74.5,66.0,30.11,SSE,158,6.9,6.9,75,0.00,CLR,,0.00,WeatherDisplay:10.37,2013-01-11 10:59:00,
2013-01-11 06:04:00,74.5,66.0,30.11,SW,225,6.9,6.9,75,0.00,CLR,,0.00,WeatherDisplay:10.37,2013-01-11 11:04:00,
2013-01-11 06:09:00,74.5,66.0,30.11,South,180,4.6,4.9,75,0.00,CLR,,0.00,WeatherDisplay:10.37,2013-01-11 11:09:00,
2013-01-11 06:14:00,74.3,65.9,30.11,SSE,158,5.9,5.9,75,0.00,CLR,,0.00,WeatherDisplay:10.37,2013-01-11 11:14:00,
2013-01-11 06:19:00,74.5,66.0,30.11,ESE,112,8.1,8.1,75,0.00,CLR,,0.00,WeatherDisplay:10.37,2013-01-11 11:19:00,
2013-01-11 06:24:00,74.7,66.2,30.11,SE,135,3.5,5.2,75,0.00,CLR,,0.00,WeatherDisplay:10.37,2013-01-11 11:24:00,
2013-01-11 06:29:00,74.3,65.9,30.11,SE,135,8.1,8.1,75,0.00,CLR,,0.00,WeatherDisplay:10.37,2013-01-11 11:29:00,
2013-01-11 06:34:00,74.3,65.9,30.11,SE,135,6.9,6.9,75,0.00,CLR,,0.00,WeatherDisplay:10.37,2013-01-11 11:34:00,
2013-01-11 06:39:00,74.1,65.7,30.11,SE,135,6.9,6.9,75,0.00,CLR,,0.00,WeatherDisplay:10.37,2013-01-11 11:39:00,
2013-01-11 06:44:00,74.1,65.7,30.11,SE,135,4.9,4.9,75,0.00,CLR,,0.00,WeatherDisplay:10.37,2013-01-11 11:44:00,
2013-01-11 06:49:00,74.3,65.9,30.11,SE,135,6.9,6.9,75,0.00,CLR,,0.00,WeatherDisplay:10.37,2013-01-11 11:49:00,
2013-01-11 06:54:00,74.3,65.9,30.11,SE,135,5.8,5.8,75,0.00,CLR,,0.00,WeatherDisplay:10.37,2013-01-11 11:54:00,
2013-01-11 06:59:00,74.3,65.9,30.11,SE,135,8.1,8.1,75,0.00,CLR,,0.00,WeatherDisplay:10.37,2013-01-11 11:59:00,
2013-01-11 07:04:00,74.3,65.9,30.11,SSE,158,5.8,5.8,75,0.00,CLR,,0.00,WeatherDisplay:10.37,2013-01-11 12:04:00,
2013-01-11 07:09:00,74.1,66.1,30.12,South,180,6.9,6.9,76,0.00,CLR,,0.00,WeatherDisplay:10.37,2013-01-11 12:09:00,
2013-01-11 07:14:00,74.3,66.2,30.12,SSE,158,5.8,5.8,76,0.00,CLR,,0.00,WeatherDisplay:10.37,2013-01-11 12:14:00,
2013-01-11 07:19:00,74.3,65.9,30.12,SE,135,6.9,6.9,75,0.00,CLR,,0.00,WeatherDisplay:10.37,2013-01-11 12:19:00,
2013-01-11 07:24:00,74.3,65.9,30.12,SE,135,4.6,4.6,75,0.00,CLR,,0.00,WeatherDisplay:10.37,2013-01-11 12:24:00,
2013-01-11 07:29:00,73.9,65.5,30.12,SSE,158,4.6,4.6,75,0.00,CLR,,0.00,WeatherDisplay:10.37,2013-01-11 12:29:00,
2013-01-11 07:34:00,74.3,65.9,30.12,SSE,158,5.8,5.8,75,0.00,CLR,,0.00,WeatherDisplay:10.37,2013-01-11 12:34:00,
2013-01-11 07:39:00,74.5,66.0,30.12,SE,135,4.6,4.6,75,0.00,CLR,,0.00,WeatherDisplay:10.37,2013-01-11 12:39:00,
2013-01-11 07:44:00,74.5,66.0,30.12,South,180,3.5,3.9,75,0.00,CLR,,0.00,WeatherDisplay:10.37,2013-01-11 12:44:00,
2013-01-11 07:49:00,74.5,66.0,30.12,SE,135,4.6,4.6,75,0.00,CLR,,0.00,WeatherDisplay:10.37,2013-01-11 12:49:00,
2013-01-11 07:54:00,74.7,66.2,30.12,North,0,8.1,8.1,75,0.00,CLR,,0.00,WeatherDisplay:10.37,2013-01-11 12:54:00,
2013-01-11 07:59:00,75.2,66.7,30.12,SSE,158,6.9,6.9,75,0.00,CLR,,0.00,WeatherDisplay:10.37,2013-01-11 12:59:00,
2013-01-11 08:04:00,75.2,66.3,30.12,SE,135,6.9,6.9,74,0.00,CLR,,0.00,WeatherDisplay:10.37,2013-01-11 13:04:00,
2013-01-11 08:09:00,75.2,66.3,30.13,SE,135,4.6,4.6,74,0.00,CLR,,0.00,WeatherDisplay:10.37,2013-01-11 13:09:00,
2013-01-11 08:14:00,75.7,66.9,30.13,South,180,6.9,6.9,74,0.00,CLR,,0.00,WeatherDisplay:10.37,2013-01-11 13:14:00,
2013-01-11 08:19:00,75.9,67.0,30.13,SE,135,4.6,4.6,74,0.00,CLR,,0.00,WeatherDisplay:10.37,2013-01-11 13:19:00,
2013-01-11 08:24:00,75.7,66.9,30.13,SSE,158,6.9,6.9,74,0.00,CLR,,0.00,WeatherDisplay:10.37,2013-01-11 13:24:00,
2013-01-11 08:29:00,75.7,66.9,30.13,ESE,112,5.8,5.8,74,0.00,CLR,,0.00,WeatherDisplay:10.37,2013-01-11 13:29:00,
2013-01-11 08:34:00,75.6,66.7,30.13,South,180,2.3,3.5,74,0.00,CLR,,0.00,WeatherDisplay:10.37,2013-01-11 13:34:00,
2013-01-11 08:39:00,75.7,66.9,30.13,SE,135,6.9,6.9,74,0.00,CLR,,0.00,WeatherDisplay:10.37,2013-01-11 13:39:00,
2013-01-11 08:44:00,75.6,66.7,30.13,SE,135,6.9,6.9,74,0.00,CLR,,0.00,WeatherDisplay:10.37,2013-01-11 13:44:00,
2013-01-11 08:49:00,75.7,67.2,30.14,SE,135,6.9,6.9,75,0.00,CLR,,0.00,WeatherDisplay:10.37,2013-01-11 13:49:00,
2013-01-11 08:54:00,75.7,67.6,30.14,SE,135,3.5,4.7,76,0.00,CLR,,0.00,WeatherDisplay:10.37,2013-01-11 13:54:00,
2013-01-11 08:59:00,75.9,67.8,30.14,NNW,338,4.6,4.6,76,0.00,CLR,,0.00,WeatherDisplay:10.37,2013-01-11 13:59:00,
2013-01-11 09:04:00,76.1,68.0,30.14,SE,135,4.6,4.6,76,0.00,CLR,,0.00,WeatherDisplay:10.37,2013-01-11 14:04:00,
2013-01-11 09:09:00,76.1,67.6,30.14,SSE,158,6.9,6.9,75,0.00,CLR,,0.00,WeatherDisplay:10.37,2013-01-11 14:09:00,
2013-01-11 09:14:00,75.9,67.0,30.14,SSE,158,3.5,4.9,74,0.00,CLR,,0.00,WeatherDisplay:10.37,2013-01-11 14:14:00,
2013-01-11 09:19:00,76.6,67.7,30.14,SE,135,4.6,4.6,74,0.00,CLR,,0.00,WeatherDisplay:10.37,2013-01-11 14:19:00,
2013-01-11 09:24:00,76.8,67.5,30.14,SE,135,3.5,4.6,73,0.00,CLR,,0.00,WeatherDisplay:10.37,2013-01-11 14:24:00,
2013-01-11 09:29:00,77.4,67.6,30.14,ESE,112,6.9,6.9,72,0.00,CLR,,0.00,WeatherDisplay:10.37,2013-01-11 14:29:00,
2013-01-11 09:34:00,77.7,68.0,30.14,SSE,158,8.1,8.1,72,0.00,CLR,,0.00,WeatherDisplay:10.37,2013-01-11 14:34:00,
2013-01-11 09:39:00,78.6,68.4,30.14,SE,135,6.9,6.9,71,0.00,CLR,,0.00,WeatherDisplay:10.37,2013-01-11 14:39:00,
2013-01-11 09:44:00,79.0,68.4,30.14,SE,135,3.5,5.5,70,0.00,CLR,,0.00,WeatherDisplay:10.37,2013-01-11 14:44:00,
2013-01-11 09:49:00,78.6,68.0,30.16,ESE,112,3.5,3.7,70,0.00,CLR,,0.00,WeatherDisplay:10.37,2013-01-11 14:49:00,
2013-01-11 09:54:00,78.4,67.8,30.16,SSE,158,3.5,3.5,70,0.00,CLR,,0.00,WeatherDisplay:10.37,2013-01-11 14:54:00,
2013-01-11 09:59:00,78.3,68.1,30.16,SSW,202,3.5,3.5,71,0.00,CLR,,0.00,WeatherDisplay:10.37,2013-01-11 14:59:00,
2013-01-11 10:04:00,78.3,68.1,30.16,SSE,158,4.6,4.6,71,0.00,CLR,,0.00,WeatherDisplay:10.37,2013-01-11 15:04:00,
2013-01-11 10:09:00,79.2,68.9,30.15,SE,135,6.9,6.9,71,0.00,CLR,,0.00,WeatherDisplay:10.37,2013-01-11 15:09:00,
2013-01-11 10:14:00,79.2,68.5,30.15,East,90,4.6,5.3,70,0.00,CLR,,0.00,WeatherDisplay:10.37,2013-01-11 15:14:00,
2013-01-11 10:19:00,79.0,68.4,30.15,SSE,158,5.8,5.8,70,0.00,CLR,,0.00,WeatherDisplay:10.37,2013-01-11 15:19:00,
2013-01-11 10:24:00,78.8,68.2,30.15,SE,135,4.6,4.7,70,0.00,CLR,,0.00,WeatherDisplay:10.37,2013-01-11 15:24:00,
2013-01-11 10:29:00,79.0,68.4,30.16,SE,135,8.1,8.1,70,0.00,CLR,,0.00,WeatherDisplay:10.37,2013-01-11 15:29:00,
2013-01-11 10:34:00,79.0,68.4,30.16,ESE,112,6.9,6.9,70,0.00,CLR,,0.00,WeatherDisplay:10.37,2013-01-11 15:34:00,
2013-01-11 10:39:00,79.3,68.7,30.16,SSE,158,6.9,6.9,70,0.00,CLR,,0.00,WeatherDisplay:10.37,2013-01-11 15:39:00,
2013-01-11 10:44:00,79.3,68.3,30.16,SE,135,6.9,6.9,69,0.00,CLR,,0.00,WeatherDisplay:10.37,2013-01-11 15:44:00,
2013-01-11 10:49:00,79.3,68.3,30.16,ESE,112,4.6,5.5,69,0.00,CLR,,0.00,WeatherDisplay:10.37,2013-01-11 15:49:00,
2013-01-11 10:54:00,79.3,68.3,30.16,ESE,112,5.8,5.8,69,0.00,CLR,,0.00,WeatherDisplay:10.37,2013-01-11 15:54:00,
2013-01-11 10:59:00,79.3,68.3,30.16,SE,135,5.8,5.8,69,0.00,CLR,,0.00,WeatherDisplay:10.37,2013-01-11 15:59:00,
2013-01-11 11:04:00,79.5,68.9,30.16,SE,135,4.6,4.6,70,0.00,CLR,,0.00,WeatherDisplay:10.37,2013-01-11 16:04:00,
2013-01-11 11:09:00,79.7,68.6,30.16,ESE,112,5.8,5.8,69,0.00,CLR,,0.00,WeatherDisplay:10.37,2013-01-11 16:09:00,
2013-01-11 11:14:00,79.7,68.6,30.16,ESE,112,8.1,8.1,69,0.00,CLR,,0.00,WeatherDisplay:10.37,2013-01-11 16:14:00,
2013-01-11 11:19:00,79.9,68.8,30.16,NNE,22,4.6,5.2,69,0.00,CLR,,0.00,WeatherDisplay:10.37,2013-01-11 16:19:00,
2013-01-11 11:24:00,80.1,69.4,30.16,ENE,68,3.5,4.5,70,0.00,CLR,,0.00,WeatherDisplay:10.37,2013-01-11 16:24:00,
2013-01-11 11:29:00,79.2,68.9,30.15,NE,45,4.6,4.6,71,0.00,CLR,,0.00,WeatherDisplay:10.37,2013-01-11 16:29:00,
2013-01-11 11:34:00,79.3,69.1,30.15,West,270,9.2,9.2,71,0.00,CLR,,0.00,WeatherDisplay:10.37,2013-01-11 16:34:00,
2013-01-11 11:39:00,80.1,69.0,30.15,SSE,158,6.9,6.9,69,0.00,CLR,,0.00,WeatherDisplay:10.37,2013-01-11 16:39:00,
2013-01-11 11:44:00,81.1,69.1,30.15,SE,135,6.9,6.9,67,0.00,CLR,,0.00,WeatherDisplay:10.37,2013-01-11 16:44:00,
2013-01-11 11:49:00,81.7,69.2,30.14,SE,135,9.2,9.2,66,0.00,CLR,,0.00,WeatherDisplay:10.37,2013-01-11 16:49:00,
2013-01-11 11:54:00,82.2,69.7,30.14,ESE,112,8.1,8.1,66,0.00,CLR,,0.00,WeatherDisplay:10.37,2013-01-11 16:54:00,
2013-01-11 11:59:00,82.6,70.1,30.14,SE,135,10.4,10.4,66,0.00,CLR,,0.00,WeatherDisplay:10.37,2013-01-11 16:59:00,
2013-01-11 12:04:00,82.4,69.9,30.14,ESE,112,5.8,6.8,66,0.00,CLR,,0.00,WeatherDisplay:10.37,2013-01-11 17:04:00,
2013-01-11 12:10:00,82.4,69.9,30.14,ESE,112,5.8,6.8,66,0.00,CLR,,0.00,WeatherDisplay:10.37,2013-01-11 17:10:00,
2013-01-11 12:15:00,82.0,69.1,30.14,NE,45,9.2,9.2,65,0.00,CLR,,0.00,WeatherDisplay:10.37,2013-01-11 17:15:00,
2013-01-11 12:20:00,81.5,69.0,30.14,East,90,8.1,8.1,66,0.00,CLR,,0.00,WeatherDisplay:10.37,2013-01-11 17:20:00,
2013-01-11 12:25:00,81.1,68.7,30.14,ESE,112,8.1,8.1,66,0.00,CLR,,0.00,WeatherDisplay:10.37,2013-01-11 17:25:00,
2013-01-11 12:30:00,81.1,69.1,30.14,ESE,112,6.9,6.9,67,0.00,CLR,,0.00,WeatherDisplay:10.37,2013-01-11 17:30:00,
2013-01-11 12:35:00,80.8,69.2,30.14,SSE,158,3.5,4.6,68,0.00,CLR,,0.00,WeatherDisplay:10.37,2013-01-11 17:35:00,
2013-01-11 12:40:00,80.6,69.1,30.14,WSW,248,6.9,6.9,68,0.00,CLR,,0.00,WeatherDisplay:10.37,2013-01-11 17:40:00,
2013-01-11 12:45:00,81.5,69.9,30.14,East,90,5.8,6.0,68,0.00,CLR,,0.00,WeatherDisplay:10.37,2013-01-11 17:45:00,
2013-01-11 12:50:00,81.1,69.1,30.14,ENE,68,5.8,5.9,67,0.00,CLR,,0.00,WeatherDisplay:10.37,2013-01-11 17:50:00,
2013-01-11 12:55:00,81.0,69.0,30.14,ENE,68,11.5,11.5,67,0.00,CLR,,0.00,WeatherDisplay:10.37,2013-01-11 17:55:00,
2013-01-11 13:00:00,81.0,68.5,30.14,SE,135,9.2,9.2,66,0.00,CLR,,0.00,WeatherDisplay:10.37,2013-01-11 18:00:00,
2013-01-11 13:05:00,81.0,69.0,30.14,ESE,112,8.1,8.1,67,0.00,CLR,,0.00,WeatherDisplay:10.37,2013-01-11 18:05:00,
2013-01-11 13:10:00,81.5,69.5,30.13,ESE,112,5.8,5.8,67,0.00,CLR,,0.00,WeatherDisplay:10.37,2013-01-11 18:10:00,
2013-01-11 13:15:00,81.1,69.1,30.13,ESE,112,6.9,6.9,67,0.00,CLR,,0.00,WeatherDisplay:10.37,2013-01-11 18:15:00,
2013-01-11 13:20:00,81.0,69.4,30.13,ESE,112,6.9,6.9,68,0.00,CLR,,0.00,WeatherDisplay:10.37,2013-01-11 18:20:00,
2013-01-11 13:25:00,80.8,69.2,30.13,ESE,112,3.5,4.6,68,0.00,CLR,,0.00,WeatherDisplay:10.37,2013-01-11 18:25:00,
2013-01-11 13:30:00,80.8,69.2,30.13,ESE,112,3.5,4.4,68,0.00,CLR,,0.00,WeatherDisplay:10.37,2013-01-11 18:30:00,
2013-01-11 13:35:00,81.9,69.8,30.13,SE,135,6.9,6.9,67,0.00,CLR,,0.00,WeatherDisplay:10.37,2013-01-11 18:35:00,
2013-01-11 13:40:00,81.7,69.2,30.13,ESE,112,9.2,9.2,66,0.00,CLR,,0.00,WeatherDisplay:10.37,2013-01-11 18:40:00,
2013-01-11 13:45:00,81.7,68.8,30.13,ESE,112,6.9,6.9,65,0.00,CLR,,0.00,WeatherDisplay:10.37,2013-01-11 18:45:00,
2013-01-11 13:50:00,81.5,68.6,30.13,ESE,112,8.1,8.1,65,0.00,CLR,,0.00,WeatherDisplay:10.37,2013-01-11 18:50:00,
2013-01-11 13:55:00,81.0,68.5,30.13,SE,135,11.5,11.5,66,0.00,CLR,,0.00,WeatherDisplay:10.37,2013-01-11 18:55:00,
2013-01-11 14:00:00,81.0,68.5,30.13,ENE,68,9.2,9.2,66,0.00,CLR,,0.00,WeatherDisplay:10.37,2013-01-11 19:00:00,
2013-01-11 14:05:00,81.0,68.5,30.13,ESE,112,6.9,6.9,66,0.00,CLR,,0.00,WeatherDisplay:10.37,2013-01-11 19:05:00,
2013-01-11 14:10:00,81.0,68.5,30.11,SE,135,8.1,8.1,66,0.00,CLR,,0.00,WeatherDisplay:10.37,2013-01-11 19:10:00,
2013-01-11 14:15:00,81.1,68.3,30.11,ESE,112,5.8,5.8,65,0.00,CLR,,0.00,WeatherDisplay:10.37,2013-01-11 19:15:00,
2013-01-11 14:20:00,81.3,68.4,30.11,SE,135,8.1,8.1,65,0.00,CLR,,0.00,WeatherDisplay:10.37,2013-01-11 19:20:00,
2013-01-11 14:25:00,81.1,68.3,30.11,SE,135,8.1,8.1,65,0.00,CLR,,0.00,WeatherDisplay:10.37,2013-01-11 19:25:00,
2013-01-11 14:30:00,81.0,68.1,30.11,SE,135,5.8,6.6,65,0.00,CLR,,0.00,WeatherDisplay:10.37,2013-01-11 19:30:00,
2013-01-11 14:35:00,81.1,68.3,30.11,East,90,3.5,5.8,65,0.00,CLR,,0.00,WeatherDisplay:10.37,2013-01-11 19:35:00,
2013-01-11 14:40:00,81.1,68.3,30.11,SE,135,8.1,8.1,65,0.00,CLR,,0.00,WeatherDisplay:10.37,2013-01-11 19:40:00,
2013-01-11 14:45:00,80.8,68.4,30.11,ESE,112,6.9,6.9,66,0.00,CLR,,0.00,WeatherDisplay:10.37,2013-01-11 19:45:00,
2013-01-11 14:50:00,80.6,67.7,30.11,SE,135,10.4,10.4,65,0.00,CLR,,0.00,WeatherDisplay:10.37,2013-01-11 19:50:00,
2013-01-11 14:55:00,80.4,68.0,30.11,East,90,6.9,6.9,66,0.00,CLR,,0.00,WeatherDisplay:10.37,2013-01-11 19:55:00,
2013-01-11 15:00:00,80.4,68.0,30.11,SE,135,6.9,6.9,66,0.00,CLR,,0.00,WeatherDisplay:10.37,2013-01-11 20:00:00,
2013-01-11 15:05:00,80.2,67.4,30.11,ENE,68,10.4,10.4,65,0.00,CLR,,0.00,WeatherDisplay:10.37,2013-01-11 20:05:00,
2013-01-11 15:10:00,80.4,68.0,30.11,ENE,68,6.9,6.9,66,0.00,CLR,,0.00,WeatherDisplay:10.37,2013-01-11 20:10:00,
2013-01-11 15:15:00,80.2,67.8,30.11,ESE,112,6.9,6.9,66,0.00,CLR,,0.00,WeatherDisplay:10.37,2013-01-11 20:15:00,
2013-01-11 15:20:00,80.4,67.6,30.11,NE,45,3.5,5.6,65,0.00,CLR,,0.00,WeatherDisplay:10.37,2013-01-11 20:20:00,
2013-01-11 15:25:00,80.6,68.2,30.11,ESE,112,8.1,8.1,66,0.00,CLR,,0.00,WeatherDisplay:10.37,2013-01-11 20:25:00,
2013-01-11 15:30:00,80.6,68.2,30.11,SE,135,4.6,5.9,66,0.00,CLR,,0.00,WeatherDisplay:10.37,2013-01-11 20:30:00,
2013-01-11 15:35:00,80.2,67.8,30.11,SW,225,4.6,5.1,66,0.00,CLR,,0.00,WeatherDisplay:10.37,2013-01-11 20:35:00,
2013-01-11 15:40:00,80.4,68.0,30.11,SE,135,6.9,6.9,66,0.00,CLR,,0.00,WeatherDisplay:10.37,2013-01-11 20:40:00,
2013-01-11 15:45:00,80.4,68.0,30.11,ENE,68,9.2,9.2,66,0.00,CLR,,0.00,WeatherDisplay:10.37,2013-01-11 20:45:00,
2013-01-11 15:50:00,79.9,67.9,30.11,ENE,68,6.9,6.9,67,0.00,CLR,,0.00,WeatherDisplay:10.37,2013-01-11 20:50:00,
2013-01-11 15:55:00,79.5,67.6,30.11,ESE,112,4.6,4.7,67,0.00,CLR,,0.00,WeatherDisplay:10.37,2013-01-11 20:55:00,
2013-01-11 16:00:00,79.5,67.6,30.11,ESE,112,4.6,4.6,67,0.00,CLR,,0.00,WeatherDisplay:10.37,2013-01-11 21:00:00,
2013-01-11 16:05:00,79.2,67.3,30.11,ESE,112,4.6,4.6,67,0.00,CLR,,0.00,WeatherDisplay:10.37,2013-01-11 21:05:00,
2013-01-11 16:10:00,79.2,67.3,30.11,ESE,112,8.1,8.1,67,0.00,CLR,,0.00,WeatherDisplay:10.37,2013-01-11 21:10:00,
2013-01-11 16:15:00,78.8,66.9,30.11,NE,45,8.1,8.1,67,0.00,CLR,,0.00,WeatherDisplay:10.37,2013-01-11 21:15:00,
2013-01-11 16:20:00,78.6,67.2,30.11,SE,135,8.1,8.1,68,0.00,CLR,,0.00,WeatherDisplay:10.37,2013-01-11 21:20:00,
2013-01-11 16:25:00,78.3,66.8,30.11,ESE,112,2.3,4.4,68,0.00,CLR,,0.00,WeatherDisplay:10.37,2013-01-11 21:25:00,
2013-01-11 16:30:00,78.6,67.2,30.11,NE,45,6.9,6.9,68,0.00,CLR,,0.00,WeatherDisplay:10.37,2013-01-11 21:30:00,
2013-01-11 16:35:00,78.3,66.8,30.11,SE,135,6.9,6.9,68,0.00,CLR,,0.00,WeatherDisplay:10.37,2013-01-11 21:35:00,
2013-01-11 16:40:00,78.1,66.7,30.11,SE,135,9.2,9.2,68,0.00,CLR,,0.00,WeatherDisplay:10.37,2013-01-11 21:40:00,
2013-01-11 16:45:00,77.9,66.9,30.11,SE,135,4.6,5.4,69,0.00,CLR,,0.00,WeatherDisplay:10.37,2013-01-11 21:45:00,
2013-01-11 16:50:00,77.9,66.9,30.11,ENE,68,6.9,6.9,69,0.00,CLR,,0.00,WeatherDisplay:10.37,2013-01-11 21:50:00,
2013-01-11 16:55:00,77.7,66.7,30.11,NNE,22,4.6,4.6,69,0.00,CLR,,0.00,WeatherDisplay:10.37,2013-01-11 21:55:00,
2013-01-11 17:00:00,77.5,66.6,30.11,ESE,112,5.8,5.8,69,0.00,CLR,,0.00,WeatherDisplay:10.37,2013-01-11 22:00:00,
2013-01-11 17:05:00,77.5,66.6,30.11,ESE,112,6.9,6.9,69,0.00,CLR,,0.00,WeatherDisplay:10.37,2013-01-11 22:05:00,
2013-01-11 17:10:00,77.2,66.2,30.11,SSE,158,5.8,5.8,69,0.00,CLR,,0.00,WeatherDisplay:10.37,2013-01-11 22:10:00,
2013-01-11 17:15:00,77.2,66.6,30.11,East,90,5.8,5.8,70,0.00,CLR,,0.00,WeatherDisplay:10.37,2013-01-11 22:15:00,
2013-01-11 17:20:00,77.2,66.2,30.11,ESE,112,4.6,4.6,69,0.00,CLR,,0.00,WeatherDisplay:10.37,2013-01-11 22:20:00,
2013-01-11 17:25:00,77.2,66.2,30.11,SSE,158,4.6,4.6,69,0.00,CLR,,0.00,WeatherDisplay:10.37,2013-01-11 22:25:00,
2013-01-11 17:30:00,76.6,65.7,30.11,ESE,112,3.5,4.3,69,0.00,CLR,,0.00,WeatherDisplay:10.37,2013-01-11 22:30:00,
2013-01-11 17:35:00,76.6,66.1,30.11,ESE,112,4.6,4.6,70,0.00,CLR,,0.00,WeatherDisplay:10.37,2013-01-11 22:35:00,
2013-01-11 17:40:00,76.6,65.7,30.11,SE,135,4.6,4.6,69,0.00,CLR,,0.00,WeatherDisplay:10.37,2013-01-11 22:40:00,
2013-01-11 17:45:00,76.3,65.8,30.11,NE,45,4.6,4.6,70,0.00,CLR,,0.00,WeatherDisplay:10.37,2013-01-11 22:45:00,
2013-01-11 17:50:00,76.5,65.9,30.11,SE,135,5.8,5.8,70,0.00,CLR,,0.00,WeatherDisplay:10.37,2013-01-11 22:50:00,
2013-01-11 17:55:00,76.5,65.9,30.11,SE,135,6.9,6.9,70,0.00,CLR,,0.00,WeatherDisplay:10.37,2013-01-11 22:55:00,
2013-01-11 18:00:00,76.1,66.0,30.11,East,90,4.6,4.6,71,0.00,CLR,,0.00,WeatherDisplay:10.37,2013-01-11 23:00:00,
2013-01-11 18:05:00,75.9,65.8,30.11,SE,135,8.1,8.1,71,0.00,CLR,,0.00,WeatherDisplay:10.37,2013-01-11 23:05:00,
2013-01-11 18:10:00,75.9,65.4,30.11,SE,135,5.8,5.8,70,0.00,CLR,,0.00,WeatherDisplay:10.37,2013-01-11 23:10:00,
2013-01-11 18:15:00,75.7,65.7,30.11,East,90,2.3,3.5,71,0.00,CLR,,0.00,WeatherDisplay:10.37,2013-01-11 23:15:00,
2013-01-11 18:20:00,75.7,66.1,30.11,SE,135,4.6,4.6,72,0.00,CLR,,0.00,WeatherDisplay:10.37,2013-01-11 23:20:00,
2013-01-11 18:25:00,75.9,65.8,30.11,ENE,68,5.8,5.8,71,0.00,CLR,,0.00,WeatherDisplay:10.37,2013-01-11 23:25:00,
2013-01-11 18:30:00,75.7,66.1,30.11,South,180,3.5,4.3,72,0.00,CLR,,0.00,WeatherDisplay:10.37,2013-01-11 23:30:00,
2013-01-11 18:35:00,75.7,66.1,30.11,ENE,68,4.6,4.6,72,0.00,CLR,,0.00,WeatherDisplay:10.37,2013-01-11 23:35:00,
2013-01-11 18:40:00,75.7,66.1,30.11,ESE,112,8.1,8.1,72,0.00,CLR,,0.00,WeatherDisplay:10.37,2013-01-11 23:40:00,
2013-01-11 18:45:00,75.7,65.7,30.11,ESE,112,6.9,6.9,71,0.00,CLR,,0.00,WeatherDisplay:10.37,2013-01-11 23:45:00,
2013-01-11 18:50:00,75.6,65.9,30.11,ENE,68,5.8,5.8,72,0.00,CLR,,0.00,WeatherDisplay:10.37,2013-01-11 23:50:00,
2013-01-11 18:55:00,75.7,66.1,30.11,SE,135,3.5,4.1,72,0.00,CLR,,0.00,WeatherDisplay:10.37,2013-01-11 23:55:00,
2013-01-11 19:00:00,75.9,66.2,30.11,SE,135,6.9,6.9,72,0.00,CLR,,0.00,WeatherDisplay:10.37,2013-01-12 00:00:00,
2013-01-11 19:05:00,75.7,66.1,30.11,SE,135,5.8,5.8,72,0.00,CLR,,0.00,WeatherDisplay:10.37,2013-01-12 00:05:00,
2013-01-11 19:10:00,75.7,66.1,30.11,ESE,112,3.5,4.4,72,0.00,CLR,,0.00,WeatherDisplay:10.37,2013-01-12 00:10:00,
2013-01-11 19:15:00,75.9,65.8,30.11,East,90,5.8,5.8,71,0.00,CLR,,0.00,WeatherDisplay:10.37,2013-01-12 00:15:00,
2013-01-11 19:21:00,75.7,66.1,30.11,ENE,68,6.9,6.9,72,0.00,CLR,,0.00,WeatherDisplay:10.37,2013-01-12 00:21:00,
2013-01-11 19:26:00,75.6,66.3,30.11,SE,135,4.6,4.6,73,0.00,CLR,,0.00,WeatherDisplay:10.37,2013-01-12 00:26:00,
2013-01-11 19:31:00,75.6,66.3,30.11,ESE,112,4.6,4.6,73,0.00,CLR,,0.00,WeatherDisplay:10.37,2013-01-12 00:31:00,
2013-01-11 19:36:00,75.7,66.5,30.11,ESE,112,4.6,4.6,73,0.00,CLR,,0.00,WeatherDisplay:10.37,2013-01-12 00:36:00,
2013-01-11 19:41:00,75.6,66.3,30.11,ESE,112,4.6,4.6,73,0.00,CLR,,0.00,WeatherDisplay:10.37,2013-01-12 00:41:00,
2013-01-11 19:46:00,75.7,66.5,30.11,SE,135,5.8,5.8,73,0.00,CLR,,0.00,WeatherDisplay:10.37,2013-01-12 00:46:00,
2013-01-11 19:51:00,75.7,66.5,30.11,East,90,5.8,5.8,73,0.00,CLR,,0.00,WeatherDisplay:10.37,2013-01-12 00:51:00,
2013-01-11 19:56:00,75.7,66.5,30.11,ESE,112,4.6,4.6,73,0.00,CLR,,0.00,WeatherDisplay:10.37,2013-01-12 00:56:00,
2013-01-11 20:01:00,75.7,66.5,30.11,ESE,112,5.8,5.8,73,0.00,CLR,,0.00,WeatherDisplay:10.37,2013-01-12 01:01:00,
2013-01-11 20:06:00,75.7,66.5,30.11,ESE,112,4.6,4.6,73,0.00,CLR,,0.00,WeatherDisplay:10.37,2013-01-12 01:06:00,
2013-01-11 20:11:00,75.7,66.5,30.11,ESE,112,5.8,5.8,73,0.00,CLR,,0.00,WeatherDisplay:10.37,2013-01-12 01:11:00,
2013-01-11 20:16:00,75.9,66.6,30.11,ESE,112,4.6,4.6,73,0.00,CLR,,0.00,WeatherDisplay:10.37,2013-01-12 01:16:00,
2013-01-11 20:21:00,75.9,66.6,30.11,ENE,68,6.9,6.9,73,0.00,CLR,,0.00,WeatherDisplay:10.37,2013-01-12 01:21:00,
2013-01-11 20:26:00,75.9,66.6,30.11,ESE,112,4.6,4.6,73,0.00,CLR,,0.00,WeatherDisplay:10.37,2013-01-12 01:26:00,
2013-01-11 20:31:00,75.9,66.6,30.12,SE,135,6.9,6.9,73,0.00,CLR,,0.00,WeatherDisplay:10.37,2013-01-12 01:31:00,
2013-01-11 20:36:00,75.9,66.6,30.12,East,90,4.6,4.6,73,0.00,CLR,,0.00,WeatherDisplay:10.37,2013-01-12 01:36:00,
2013-01-11 20:41:00,75.9,66.6,30.12,East,90,4.6,4.6,73,0.00,CLR,,0.00,WeatherDisplay:10.37,2013-01-12 01:41:00,
2013-01-11 20:46:00,75.9,66.6,30.12,ESE,112,5.8,5.8,73,0.00,CLR,,0.00,WeatherDisplay:10.37,2013-01-12 01:46:00,
2013-01-11 20:51:00,75.9,66.6,30.12,SE,135,6.9,6.9,73,0.00,CLR,,0.00,WeatherDisplay:10.37,2013-01-12 01:51:00,
2013-01-11 20:56:00,76.1,66.4,30.12,SE,135,4.6,4.9,72,0.00,CLR,,0.00,WeatherDisplay:10.37,2013-01-12 01:56:00,
2013-01-11 21:01:00,75.9,66.2,30.12,SE,135,6.9,6.9,72,0.00,CLR,,0.00,WeatherDisplay:10.37,2013-01-12 02:01:00,
2013-01-11 21:06:00,76.1,66.4,30.12,ENE,68,4.6,4.7,72,0.00,CLR,,0.00,WeatherDisplay:10.37,2013-01-12 02:06:00,
2013-01-11 21:11:00,75.9,66.2,30.12,SE,135,9.2,9.2,72,0.00,CLR,,0.00,WeatherDisplay:10.37,2013-01-12 02:11:00,
2013-01-11 21:16:00,76.1,66.4,30.12,ESE,112,5.8,5.8,72,0.00,CLR,,0.00,WeatherDisplay:10.37,2013-01-12 02:16:00,
2013-01-11 21:21:00,76.1,66.4,30.12,SE,135,3.5,4.9,72,0.00,CLR,,0.00,WeatherDisplay:10.37,2013-01-12 02:21:00,
2013-01-11 21:26:00,76.1,66.4,30.12,East,90,3.5,4.6,72,0.00,CLR,,0.00,WeatherDisplay:10.37,2013-01-12 02:26:00,
2013-01-11 21:31:00,76.1,66.4,30.13,ESE,112,6.9,6.9,72,0.00,CLR,,0.00,WeatherDisplay:10.37,2013-01-12 02:31:00,
2013-01-11 21:36:00,75.9,65.8,30.13,South,180,5.8,5.8,71,0.00,CLR,,0.00,WeatherDisplay:10.37,2013-01-12 02:36:00,
2013-01-11 21:41:00,75.9,65.8,30.13,SE,135,8.1,8.1,71,0.00,CLR,,0.00,WeatherDisplay:10.37,2013-01-12 02:41:00,
2013-01-11 21:46:00,76.1,66.4,30.13,SE,135,4.6,4.9,72,0.00,CLR,,0.00,WeatherDisplay:10.37,2013-01-12 02:46:00,
2013-01-11 21:51:00,76.1,66.0,30.12,SE,135,9.2,9.2,71,0.00,CLR,,0.00,WeatherDisplay:10.37,2013-01-12 02:51:00,
2013-01-11 21:56:00,75.9,65.8,30.12,ESE,112,5.8,5.8,71,0.00,CLR,,0.00,WeatherDisplay:10.37,2013-01-12 02:56:00,
2013-01-11 22:01:00,76.1,66.0,30.12,East,90,6.9,6.9,71,0.00,CLR,,0.00,WeatherDisplay:10.37,2013-01-12 03:01:00,
2013-01-11 22:06:00,75.9,65.8,30.12,ESE,112,6.9,6.9,71,0.00,CLR,,0.00,WeatherDisplay:10.37,2013-01-12 03:06:00,
2013-01-11 22:11:00,76.1,66.0,30.11,North,0,6.9,6.9,71,0.00,CLR,,0.00,WeatherDisplay:10.37,2013-01-12 03:11:00,
2013-01-11 22:16:00,76.1,66.0,30.11,ESE,112,5.8,5.8,71,0.00,CLR,,0.00,WeatherDisplay:10.37,2013-01-12 03:16:00,
2013-01-11 22:21:00,76.1,65.6,30.11,SE,135,9.2,9.2,70,0.00,CLR,,0.00,WeatherDisplay:10.37,2013-01-12 03:21:00,
2013-01-11 22:26:00,75.9,65.4,30.11,East,90,6.9,6.9,70,0.00,CLR,,0.00,WeatherDisplay:10.37,2013-01-12 03:26:00,
2013-01-11 22:31:00,75.7,65.7,30.12,ESE,112,8.1,8.1,71,0.00,CLR,,0.00,WeatherDisplay:10.37,2013-01-12 03:31:00,
2013-01-11 22:36:00,75.7,66.1,30.12,ENE,68,3.5,4.8,72,0.00,CLR,,0.00,WeatherDisplay:10.37,2013-01-12 03:36:00,
2013-01-11 22:41:00,75.7,66.1,30.12,ESE,112,8.1,8.1,72,0.00,CLR,,0.00,WeatherDisplay:10.37,2013-01-12 03:41:00,
2013-01-11 22:46:00,75.7,66.5,30.12,ENE,68,5.8,5.8,73,0.00,CLR,,0.00,WeatherDisplay:10.37,2013-01-12 03:46:00,
2013-01-11 22:51:00,75.7,66.1,30.11,NNE,22,5.8,5.8,72,0.00,CLR,,0.00,WeatherDisplay:10.37,2013-01-12 03:51:00,
2013-01-11 22:56:00,75.6,66.3,30.11,ESE,112,8.1,8.1,73,0.00,CLR,,0.00,WeatherDisplay:10.37,2013-01-12 03:56:00,
2013-01-11 23:01:00,75.6,65.9,30.11,SE,135,5.8,5.8,72,0.00,CLR,,0.00,WeatherDisplay:10.37,2013-01-12 04:01:00,
2013-01-11 23:06:00,75.2,65.6,30.11,ESE,112,9.2,9.2,72,0.00,CLR,,0.00,WeatherDisplay:10.37,2013-01-12 04:06:00,
2013-01-11 23:11:00,75.4,66.1,30.11,ENE,68,5.8,5.8,73,0.00,CLR,,0.00,WeatherDisplay:10.37,2013-01-12 04:11:00,
2013-01-11 23:16:00,75.6,66.3,30.11,ESE,112,3.5,4.9,73,0.00,CLR,,0.00,WeatherDisplay:10.37,2013-01-12 04:16:00,
2013-01-11 23:21:00,75.6,66.3,30.11,SE,135,9.2,9.2,73,0.00,CLR,,0.00,WeatherDisplay:10.37,2013-01-12 04:21:00,
2013-01-11 23:26:00,75.2,65.6,30.11,ENE,68,8.1,8.1,72,0.00,CLR,,0.00,WeatherDisplay:10.37,2013-01-12 04:26:00,
2013-01-11 23:31:00,75.2,65.9,30.11,ESE,112,9.2,9.2,73,0.00,CLR,,0.00,WeatherDisplay:10.37,2013-01-12 04:31:00,
2013-01-11 23:36:00,75.2,65.9,30.11,ESE,112,6.9,6.9,73,0.00,CLR,,0.00,WeatherDisplay:10.37,2013-01-12 04:36:00,
2013-01-11 23:41:00,75.2,65.9,30.11,ESE,112,8.1,8.1,73,0.00,CLR,,0.00,WeatherDisplay:10.37,2013-01-12 04:41:00,
2013-01-11 23:46:00,75.0,65.8,30.10,ESE,112,8.1,8.1,73,0.00,CLR,,0.00,WeatherDisplay:10.37,2013-01-12 04:46:00,
2013-01-11 23:51:00,75.0,65.8,30.10,ESE,112,4.6,6.2,73,0.00,CLR,,0.00,WeatherDisplay:10.37,2013-01-12 04:51:00,
2013-01-11 23:56:00,75.0,65.4,30.10,East,90,6.9,6.9,72,0.00,CLR,,0.00,WeatherDisplay:10.37,2013-01-12 04:56:00,